TAP103 LPPT-SBCF
Flight info
| Callsign | TAP103 |
|---|---|
| Flight time | N/A |
| Altitude | 35000 |
| Route | ULVOT DCT BEXAL DCT SAMAR/N0469F370 DCT YUSME DCT LIMAL/N0474F360 N873 IPERA/N0474F380 UN873 NTL/N0463F400 DCT SIKEL UZ21 OPTEB |
| Aircraft | A339/H-SADE1E2E3GHIJ1J3J5M1P2RWXYZ/LB2D1 |
Departure
| Time | N/A |
|---|---|
| Airport | Lisbon Humberto Delgado Airport (LPPT) |
Arrival
| Time | 2026-04-29 15:39 |
|---|---|
| Airport | Tancredo Neves International Airport (SBCF) |
| Time | Latitude | Longitude | Altitude | Speed | Heading |
|---|---|---|---|---|---|
| 2026-04-29 14:45 | -14.71275 | -40.27501 | 40102 ft | 463 kts | 216° |
| 2026-04-29 14:45 | -14.76476 | -40.31450 | 40108 ft | 463 kts | 216° |
| 2026-04-29 14:46 | -14.81662 | -40.35390 | 40115 ft | 463 kts | 216° |
| 2026-04-29 14:46 | -14.86896 | -40.39368 | 40117 ft | 464 kts | 216° |
| 2026-04-29 14:47 | -14.92080 | -40.43310 | 40117 ft | 464 kts | 216° |
| 2026-04-29 14:47 | -14.97284 | -40.47271 | 40111 ft | 463 kts | 216° |
| 2026-04-29 14:48 | -15.02490 | -40.51237 | 40101 ft | 464 kts | 216° |
| 2026-04-29 14:48 | -15.07695 | -40.55205 | 40100 ft | 464 kts | 216° |
| 2026-04-29 14:49 | -15.12917 | -40.59188 | 40098 ft | 464 kts | 216° |
| 2026-04-29 14:49 | -15.18162 | -40.63189 | 40100 ft | 464 kts | 216° |
| 2026-04-29 14:50 | -15.23386 | -40.67176 | 40098 ft | 464 kts | 216° |
| 2026-04-29 14:50 | -15.28590 | -40.71153 | 40095 ft | 463 kts | 216° |
| 2026-04-29 14:51 | -15.33784 | -40.75124 | 40106 ft | 464 kts | 216° |
| 2026-04-29 14:51 | -15.39009 | -40.79121 | 40113 ft | 464 kts | 216° |
| 2026-04-29 14:52 | -15.44198 | -40.83094 | 40124 ft | 465 kts | 216° |
| 2026-04-29 14:52 | -15.49419 | -40.87092 | 40130 ft | 465 kts | 216° |
| 2026-04-29 14:53 | -15.54606 | -40.91068 | 40131 ft | 464 kts | 216° |
| 2026-04-29 14:53 | -15.59800 | -40.95051 | 40126 ft | 464 kts | 216° |
| 2026-04-29 14:54 | -15.65007 | -40.99046 | 40128 ft | 463 kts | 216° |
| 2026-04-29 14:54 | -15.70189 | -41.03025 | 40129 ft | 463 kts | 216° |
| 2026-04-29 14:55 | -15.75396 | -41.07026 | 40132 ft | 464 kts | 216° |
| 2026-04-29 14:55 | -15.80586 | -41.11018 | 40135 ft | 464 kts | 216° |
| 2026-04-29 14:56 | -15.85794 | -41.15025 | 40135 ft | 465 kts | 216° |
| 2026-04-29 14:56 | -15.90986 | -41.19022 | 40135 ft | 465 kts | 216° |
| 2026-04-29 14:57 | -15.96203 | -41.23041 | 40130 ft | 464 kts | 216° |
| 2026-04-29 14:57 | -16.01379 | -41.27031 | 40130 ft | 464 kts | 216° |
| 2026-04-29 14:58 | -16.06552 | -41.31020 | 40125 ft | 463 kts | 216° |
| 2026-04-29 14:58 | -16.11783 | -41.35057 | 40125 ft | 464 kts | 216° |
| 2026-04-29 14:59 | -16.16966 | -41.39061 | 40125 ft | 464 kts | 216° |
| 2026-04-29 14:59 | -16.22193 | -41.43099 | 40122 ft | 465 kts | 216° |
| 2026-04-29 15:00 | -16.26155 | -41.46162 | 40122 ft | 465 kts | 216° |
| 2026-04-29 15:00 | -16.31149 | -41.50027 | 40117 ft | 466 kts | 216° |
| 2026-04-29 15:01 | -16.36352 | -41.54055 | 40108 ft | 465 kts | 216° |
| 2026-04-29 15:01 | -16.41519 | -41.58059 | 40101 ft | 464 kts | 216° |
| 2026-04-29 15:02 | -16.46720 | -41.62089 | 40090 ft | 464 kts | 216° |
| 2026-04-29 15:02 | -16.51928 | -41.66130 | 40084 ft | 464 kts | 216° |
| 2026-04-29 15:03 | -16.57145 | -41.70180 | 40095 ft | 464 kts | 216° |
| 2026-04-29 15:03 | -16.62316 | -41.74197 | 40108 ft | 463 kts | 216° |
| 2026-04-29 15:04 | -16.67477 | -41.78208 | 40114 ft | 463 kts | 216° |
| 2026-04-29 15:04 | -16.72634 | -41.82221 | 40118 ft | 463 kts | 216° |
| 2026-04-29 15:05 | -16.77785 | -41.86230 | 40113 ft | 462 kts | 216° |
| 2026-04-29 15:05 | -16.82965 | -41.90265 | 40114 ft | 463 kts | 216° |
| 2026-04-29 15:06 | -16.88110 | -41.94275 | 40112 ft | 463 kts | 216° |
| 2026-04-29 15:06 | -16.93283 | -41.98313 | 40109 ft | 463 kts | 216° |
| 2026-04-29 15:07 | -16.98422 | -42.02329 | 40109 ft | 463 kts | 216° |
| 2026-04-29 15:07 | -17.03595 | -42.06373 | 40112 ft | 464 kts | 216° |
| 2026-04-29 15:08 | -17.08755 | -42.10408 | 40115 ft | 464 kts | 216° |
| 2026-04-29 15:08 | -17.13991 | -42.14506 | 40118 ft | 464 kts | 216° |
| 2026-04-29 15:09 | -17.19148 | -42.18546 | 40122 ft | 464 kts | 216° |
| 2026-04-29 15:09 | -17.24335 | -42.22612 | 40127 ft | 463 kts | 216° |
| 2026-04-29 15:10 | -17.29481 | -42.26648 | 40132 ft | 462 kts | 216° |
| 2026-04-29 15:10 | -17.34625 | -42.30686 | 40137 ft | 462 kts | 216° |
| 2026-04-29 15:11 | -17.39742 | -42.34705 | 40144 ft | 461 kts | 217° |
| 2026-04-29 15:11 | -17.44870 | -42.38736 | 40151 ft | 461 kts | 217° |
| 2026-04-29 15:12 | -17.50001 | -42.42773 | 40154 ft | 461 kts | 217° |
| 2026-04-29 15:12 | -17.55152 | -42.46827 | 40156 ft | 461 kts | 217° |
| 2026-04-29 15:13 | -17.60265 | -42.50856 | 40160 ft | 461 kts | 217° |
| 2026-04-29 15:13 | -17.65386 | -42.54893 | 40165 ft | 460 kts | 217° |
| 2026-04-29 15:14 | -17.70540 | -42.58959 | 40166 ft | 460 kts | 217° |
| 2026-04-29 15:14 | -17.75643 | -42.62988 | 40168 ft | 460 kts | 217° |
| 2026-04-29 15:15 | -17.80803 | -42.67064 | 40176 ft | 460 kts | 217° |
| 2026-04-29 15:15 | -17.85904 | -42.71098 | 39878 ft | 460 kts | 217° |
| 2026-04-29 15:15 | -17.88498 | -42.73151 | 38893 ft | 466 kts | 217° |
| 2026-04-29 15:16 | -17.91115 | -42.75222 | 37788 ft | 474 kts | 217° |
| 2026-04-29 15:16 | -17.93761 | -42.77319 | 36804 ft | 478 kts | 217° |
| 2026-04-29 15:16 | -17.96403 | -42.79412 | 35955 ft | 480 kts | 217° |
| 2026-04-29 15:16 | -17.99088 | -42.81540 | 35149 ft | 481 kts | 217° |
| 2026-04-29 15:17 | -18.01755 | -42.83654 | 34332 ft | 481 kts | 217° |
| 2026-04-29 15:17 | -18.04417 | -42.85764 | 33461 ft | 483 kts | 218° |
| 2026-04-29 15:17 | -18.07109 | -42.87898 | 32567 ft | 485 kts | 218° |
| 2026-04-29 15:17 | -18.09824 | -42.90053 | 31704 ft | 488 kts | 218° |
| 2026-04-29 15:18 | -18.12511 | -42.92186 | 31064 ft | 486 kts | 218° |
| 2026-04-29 15:18 | -18.15251 | -42.94360 | 30548 ft | 481 kts | 218° |
| 2026-04-29 15:18 | -18.17966 | -42.96518 | 29998 ft | 477 kts | 218° |
| 2026-04-29 15:18 | -18.20610 | -42.98620 | 29432 ft | 474 kts | 218° |
| 2026-04-29 15:19 | -18.23238 | -43.00710 | 28862 ft | 471 kts | 218° |
| 2026-04-29 15:19 | -18.25875 | -43.02805 | 28299 ft | 468 kts | 218° |
| 2026-04-29 15:19 | -18.28461 | -43.04864 | 27748 ft | 466 kts | 218° |
| 2026-04-29 15:19 | -18.31019 | -43.06900 | 27202 ft | 463 kts | 218° |
| 2026-04-29 15:20 | -18.33595 | -43.08951 | 26653 ft | 460 kts | 218° |
| 2026-04-29 15:20 | -18.36136 | -43.10975 | 26112 ft | 458 kts | 218° |
| 2026-04-29 15:20 | -18.38657 | -43.12985 | 25574 ft | 455 kts | 218° |
| 2026-04-29 15:20 | -18.41185 | -43.14992 | 25038 ft | 452 kts | 218° |
| 2026-04-29 15:21 | -18.43724 | -43.17002 | 24479 ft | 450 kts | 218° |
| 2026-04-29 15:21 | -18.46204 | -43.18966 | 23942 ft | 448 kts | 218° |
| 2026-04-29 15:21 | -18.48712 | -43.20952 | 23464 ft | 444 kts | 218° |
| 2026-04-29 15:21 | -18.51190 | -43.22915 | 23013 ft | 440 kts | 218° |
| 2026-04-29 15:22 | -18.53629 | -43.24848 | 22572 ft | 437 kts | 218° |
| 2026-04-29 15:22 | -18.56050 | -43.26768 | 22141 ft | 433 kts | 218° |
| 2026-04-29 15:22 | -18.58444 | -43.28668 | 21719 ft | 429 kts | 218° |
| 2026-04-29 15:22 | -18.60825 | -43.30557 | 21305 ft | 425 kts | 218° |
| 2026-04-29 15:23 | -18.63174 | -43.32423 | 20896 ft | 421 kts | 218° |
| 2026-04-29 15:23 | -18.65499 | -43.34271 | 20491 ft | 418 kts | 218° |
| 2026-04-29 15:23 | -18.67806 | -43.36103 | 20093 ft | 414 kts | 218° |
| 2026-04-29 15:23 | -18.70103 | -43.37929 | 19690 ft | 411 kts | 218° |
| 2026-04-29 15:24 | -18.72402 | -43.39756 | 19286 ft | 407 kts | 218° |
| 2026-04-29 15:24 | -18.74641 | -43.41538 | 18888 ft | 404 kts | 218° |
| 2026-04-29 15:24 | -18.76900 | -43.43335 | 18483 ft | 402 kts | 218° |
| 2026-04-29 15:24 | -18.79109 | -43.45094 | 18071 ft | 399 kts | 218° |
| 2026-04-29 15:25 | -18.81322 | -43.46856 | 17651 ft | 397 kts | 218° |
| 2026-04-29 15:25 | -18.83515 | -43.48603 | 17243 ft | 394 kts | 218° |
| 2026-04-29 15:25 | -18.85727 | -43.50366 | 16831 ft | 392 kts | 218° |
| 2026-04-29 15:25 | -18.87907 | -43.52104 | 16415 ft | 391 kts | 218° |
| 2026-04-29 15:26 | -18.90067 | -43.53826 | 16001 ft | 389 kts | 218° |
| 2026-04-29 15:26 | -18.92216 | -43.55539 | 15591 ft | 388 kts | 218° |
| 2026-04-29 15:26 | -18.94394 | -43.57276 | 15239 ft | 384 kts | 218° |
| 2026-04-29 15:26 | -18.96491 | -43.58949 | 15155 ft | 372 kts | 218° |
| 2026-04-29 15:27 | -18.98543 | -43.60586 | 15155 ft | 357 kts | 218° |
| 2026-04-29 15:27 | -19.00498 | -43.62145 | 15155 ft | 344 kts | 218° |
| 2026-04-29 15:27 | -19.02384 | -43.63644 | 15019 ft | 337 kts | 218° |
| 2026-04-29 15:27 | -19.04285 | -43.65143 | 14560 ft | 341 kts | 218° |
| 2026-04-29 15:28 | -19.06198 | -43.66647 | 14336 ft | 336 kts | 218° |
| 2026-04-29 15:28 | -19.07450 | -43.67632 | 14187 ft | 333 kts | 218° |
| 2026-04-29 15:28 | -19.09938 | -43.69589 | 13886 ft | 328 kts | 218° |
| 2026-04-29 15:28 | -19.11777 | -43.71036 | 13595 ft | 326 kts | 218° |
| 2026-04-29 15:29 | -19.13632 | -43.72498 | 13267 ft | 326 kts | 218° |
| 2026-04-29 15:29 | -19.17287 | -43.75380 | 12658 ft | 324 kts | 218° |
| 2026-04-29 15:30 | -19.20894 | -43.78227 | 12094 ft | 321 kts | 217° |
| 2026-04-29 15:30 | -19.22662 | -43.79622 | 11817 ft | 319 kts | 217° |
| 2026-04-29 15:30 | -19.24457 | -43.81039 | 11531 ft | 317 kts | 218° |
| 2026-04-29 15:30 | -19.26151 | -43.82518 | 11109 ft | 314 kts | 223° |
| 2026-04-29 15:31 | -19.27699 | -43.84141 | 10523 ft | 311 kts | 227° |
| 2026-04-29 15:31 | -19.29179 | -43.85798 | 9947 ft | 308 kts | 227° |
| 2026-04-29 15:31 | -19.30623 | -43.87432 | 9373 ft | 305 kts | 227° |
| 2026-04-29 15:31 | -19.32083 | -43.89077 | 8793 ft | 303 kts | 227° |
| 2026-04-29 15:32 | -19.33511 | -43.90683 | 8225 ft | 299 kts | 227° |
| 2026-04-29 15:32 | -19.34938 | -43.92285 | 7680 ft | 296 kts | 227° |
| 2026-04-29 15:32 | -19.36358 | -43.93875 | 7342 ft | 296 kts | 227° |
| 2026-04-29 15:32 | -19.37762 | -43.95449 | 7039 ft | 295 kts | 227° |
| 2026-04-29 15:33 | -19.39168 | -43.97026 | 6939 ft | 287 kts | 227° |
| 2026-04-29 15:33 | -19.40513 | -43.98533 | 6934 ft | 274 kts | 227° |
| 2026-04-29 15:33 | -19.41794 | -43.99971 | 6933 ft | 262 kts | 226° |
| 2026-04-29 15:33 | -19.43012 | -44.01336 | 6936 ft | 250 kts | 227° |
| 2026-04-29 15:34 | -19.44183 | -44.02723 | 6775 ft | 250 kts | 229° |
| 2026-04-29 15:34 | -19.45312 | -44.04087 | 6488 ft | 246 kts | 229° |
| 2026-04-29 15:34 | -19.46438 | -44.05452 | 6124 ft | 241 kts | 229° |
| 2026-04-29 15:34 | -19.47534 | -44.06781 | 5751 ft | 238 kts | 229° |
| 2026-04-29 15:35 | -19.48715 | -44.07981 | 5309 ft | 236 kts | 207° |
| 2026-04-29 15:35 | -19.50259 | -44.08399 | 4998 ft | 225 kts | 171° |
| 2026-04-29 15:35 | -19.51638 | -44.07874 | 4960 ft | 197 kts | 141° |
| 2026-04-29 15:35 | -19.52618 | -44.06990 | 4951 ft | 176 kts | 133° |
| 2026-04-29 15:36 | -19.53492 | -44.06087 | 4864 ft | 172 kts | 133° |
| 2026-04-29 15:36 | -19.54341 | -44.05245 | 4644 ft | 163 kts | 134° |
| 2026-04-29 15:36 | -19.55167 | -44.04464 | 4428 ft | 155 kts | 135° |
| 2026-04-29 15:36 | -19.55971 | -44.03720 | 4229 ft | 150 kts | 135° |
| 2026-04-29 15:37 | -19.56763 | -44.03006 | 4091 ft | 150 kts | 136° |
| 2026-04-29 15:37 | -19.57561 | -44.02268 | 3902 ft | 151 kts | 135° |
| 2026-04-29 15:37 | -19.58339 | -44.01540 | 3739 ft | 149 kts | 134° |
| 2026-04-29 15:37 | -19.59110 | -44.00791 | 3560 ft | 149 kts | 136° |
| 2026-04-29 15:38 | -19.59919 | -44.00092 | 3320 ft | 148 kts | 137° |
| 2026-04-29 15:38 | -19.60694 | -43.99382 | 3146 ft | 148 kts | 134° |
| 2026-04-29 15:38 | -19.61469 | -43.98648 | 2975 ft | 148 kts | 137° |
| 2026-04-29 15:38 | -19.62241 | -43.97930 | 2764 ft | 146 kts | 136° |
| 2026-04-29 15:39 | -19.62994 | -43.97238 | 2689 ft | 132 kts | 137° |
| 2026-04-29 15:39 | -19.63560 | -43.96706 | 2693 ft | 83 kts | 140° |
| 2026-04-29 15:39 | -19.63884 | -43.96410 | 2703 ft | 52 kts | 139° |
| 2026-04-29 15:39 | -19.64137 | -43.96173 | 2709 ft | 41 kts | 139° |
| 2026-04-29 15:40 | -19.64309 | -43.96016 | 2712 ft | 22 kts | 137° |
| 2026-04-29 15:40 | -19.64355 | -43.95934 | 2714 ft | 8 kts | 77° |
| 2026-04-29 15:40 | -19.64328 | -43.95884 | 2716 ft | 6 kts | 47° |
| 2026-04-29 15:40 | -19.64300 | -43.95853 | 2718 ft | 4 kts | 43° |
| 2026-04-29 15:41 | -19.64248 | -43.95847 | 2718 ft | 12 kts | 333° |
| 2026-04-29 15:41 | -19.64177 | -43.95908 | 2718 ft | 13 kts | 319° |
| 2026-04-29 15:41 | -19.64101 | -43.95978 | 2716 ft | 15 kts | 319° |
| 2026-04-29 15:41 | -19.64016 | -43.96056 | 2714 ft | 17 kts | 318° |
| 2026-04-29 15:42 | -19.63922 | -43.96144 | 2712 ft | 18 kts | 319° |
| 2026-04-29 15:42 | -19.63823 | -43.96235 | 2710 ft | 19 kts | 319° |
| 2026-04-29 15:42 | -19.63721 | -43.96330 | 2708 ft | 19 kts | 319° |
| 2026-04-29 15:42 | -19.63616 | -43.96426 | 2707 ft | 20 kts | 319° |
| 2026-04-29 15:43 | -19.63506 | -43.96528 | 2702 ft | 21 kts | 319° |
| 2026-04-29 15:43 | -19.63387 | -43.96638 | 2698 ft | 22 kts | 319° |
| 2026-04-29 15:43 | -19.63296 | -43.96715 | 2699 ft | 9 kts | 339° |
| 2026-04-29 15:43 | -19.63256 | -43.96703 | 2700 ft | 5 kts | 40° |
| 2026-04-29 15:44 | -19.63240 | -43.96684 | 2701 ft | 1 kts | 48° |
| 2026-04-29 15:44 | -19.63238 | -43.96682 | 2702 ft | 0 kts | 48° |
| 2026-04-29 15:44 | -19.63235 | -43.96677 | 2702 ft | 3 kts | 48° |
| 2026-04-29 15:44 | -19.63206 | -43.96644 | 2706 ft | 4 kts | 47° |
| 2026-04-29 15:45 | -19.63188 | -43.96623 | 2707 ft | 3 kts | 48° |
| 2026-04-29 15:45 | -19.63167 | -43.96597 | 2708 ft | 5 kts | 49° |
| 2026-04-29 15:45 | -19.63151 | -43.96578 | 2709 ft | 1 kts | 49° |
| 2026-04-29 15:45 | -19.63143 | -43.96568 | 2710 ft | 0 kts | 50° |
| 2026-04-29 15:46 | -19.63138 | -43.96562 | 2711 ft | 0 kts | 50° |